KELK/ELK METAR and TAF weather

Enter ICAO airport designator
Station Type Date Time Source
KELK METAR 2020/01/22 15:15 UTC NOAA

KELK 221515Z AUTO 16008G16KT M1/4SM FG OVC003 05/05 A2987 RMK AO2 T00470047


Station Type Date Time Source
KELK Decoded METAR 2020/01/22 15:15 UTC NOAA

Station name not available
Jan 22, 2020 - 10:15 AM EST / 2020.01.22 1515 UTC
Wind: from the SSE (160 degrees) at 9 MPH (8 KT) gusting to 18 MPH (16 KT):0
Visibility: less than 1/4 mile(s):1
Sky conditions: overcast
Weather: fog
Temperature: 40.5 F (4.7 C)
Dew Point: 40.5 F (4.7 C)
Relative Humidity: 100%
Pressure (altimeter): 29.87 in. Hg (1011 hPa)
ob: KELK 221515Z AUTO 16008G16KT M1/4SM FG OVC003 05/05 A2987 RMK AO2 T00470047
cycle: 15

Station Type Date Time Source
KELK TAF UTC NOAA

Error!

Example: see airport list